createdAt,value
2023-01-13T04:56:44.640Z,37.90
2023-01-13T04:59:12.423Z,37.33
2023-01-13T05:01:40.090Z,34.25
2023-01-13T05:04:07.619Z,32.88
2023-01-13T05:06:34.127Z,32.38
2023-01-13T05:09:00.644Z,36.97
2023-01-13T05:11:45.784Z,30.63
2023-01-13T05:14:30.582Z,33.53
2023-01-13T05:17:03.419Z,34.70
2023-01-13T05:19:35.024Z,32.42
2023-01-13T05:22:20.710Z,34.73
2023-01-13T05:25:05.637Z,38.05
2023-01-13T05:27:33.679Z,32.53
2023-01-13T05:30:00.416Z,32.78
2023-01-13T05:32:29.976Z,31.58
2023-01-13T05:34:56.989Z,33.00
2023-01-13T05:37:24.546Z,34.88
2023-01-13T05:40:10.218Z,35.75
2023-01-13T05:42:54.993Z,33.25
2023-01-13T05:45:21.839Z,39.90
2023-01-13T05:47:48.350Z,35.63
2023-01-13T05:50:15.235Z,35.90
2023-01-13T05:52:41.838Z,37.30
2023-01-13T05:55:08.754Z,34.05
2023-01-13T05:57:35.235Z,34.15
2023-01-13T06:00:02.005Z,33.37
2023-01-13T06:02:28.616Z,31.52
2023-01-13T06:04:55.093Z,31.80
2023-01-13T06:07:21.633Z,35.50
2023-01-13T06:09:48.226Z,32.30
2023-01-13T06:12:14.708Z,29.47
2023-01-13T06:14:41.265Z,30.98
2023-01-13T06:17:09.145Z,31.75
2023-01-13T06:19:35.749Z,34.25
2023-01-13T06:22:10.779Z,32.15
2023-01-13T06:24:37.447Z,33.10
2023-01-13T06:27:08.430Z,30.42
2023-01-13T06:29:42.797Z,29.95
2023-01-13T06:32:25.743Z,33.10
2023-01-13T06:35:04.705Z,31.63
2023-01-13T06:37:32.871Z,30.20
2023-01-13T06:40:03.083Z,31.95
2023-01-13T06:42:49.124Z,29.60
2023-01-13T06:45:15.672Z,31.63
2023-01-13T06:47:42.442Z,34.50
2023-01-13T06:50:11.906Z,34.93
2023-01-13T06:52:38.411Z,30.85
2023-01-13T06:55:05.372Z,36.65
2023-01-13T06:57:31.904Z,33.92
2023-01-13T06:59:58.462Z,31.38
2023-01-13T07:02:25.090Z,33.43
2023-01-13T07:04:51.719Z,29.48
2023-01-13T07:07:18.246Z,31.65
2023-01-13T07:09:44.702Z,29.80
2023-01-13T07:12:12.352Z,30.05
2023-01-13T07:14:57.296Z,33.60
2023-01-13T07:17:25.435Z,29.05
2023-01-13T07:19:52.602Z,28.77
2023-01-13T07:22:19.122Z,31.95
2023-01-13T07:24:45.614Z,27.98
2023-01-13T07:27:12.171Z,29.43
2023-01-13T07:29:38.777Z,28.00
2023-01-13T07:32:06.949Z,26.67
2023-01-13T07:34:39.007Z,31.20
2023-01-13T07:37:05.634Z,27.90
2023-01-13T07:39:32.113Z,27.17
2023-01-13T07:42:17.304Z,28.80
2023-01-13T07:44:43.810Z,27.17
2023-01-13T07:47:11.263Z,28.58
2023-01-13T07:49:37.851Z,25.05
2023-01-13T07:52:04.741Z,23.17
2023-01-13T07:54:40.579Z,24.85
2023-01-13T07:57:08.137Z,24.17
2023-01-13T07:59:34.718Z,26.25
2023-01-13T08:02:01.427Z,25.95
2023-01-13T08:04:28.043Z,26.53
2023-01-13T08:06:54.545Z,22.10
2023-01-13T08:09:21.174Z,24.48
2023-01-13T08:12:10.386Z,24.88
2023-01-13T08:14:37.126Z,23.70
2023-01-13T08:17:03.964Z,25.33
2023-01-13T08:19:33.402Z,23.25
2023-01-13T08:22:01.095Z,25.80
2023-01-13T08:24:27.869Z,23.58
2023-01-13T08:26:54.448Z,24.52
2023-01-13T08:29:21.017Z,26.67
2023-01-13T08:31:49.871Z,25.42
2023-01-13T08:34:16.447Z,25.90
2023-01-13T08:36:43.085Z,21.73
2023-01-13T08:39:09.610Z,24.02
2023-01-13T08:41:54.948Z,21.33
2023-01-13T08:44:26.465Z,22.52
2023-01-13T08:46:53.388Z,23.25
2023-01-13T08:49:20.245Z,20.65
2023-01-13T08:51:46.890Z,21.08
2023-01-13T08:54:13.609Z,21.77
2023-01-13T08:56:49.664Z,24.63
2023-01-13T08:59:20.425Z,19.40
2023-01-13T09:01:49.157Z,22.20
2023-01-13T09:04:20.536Z,20.92
2023-01-13T09:06:47.555Z,19.57
2023-01-13T09:09:14.201Z,21.50
2023-01-13T09:12:01.602Z,20.50
2023-01-13T09:14:29.873Z,21.65
2023-01-13T09:16:56.537Z,20.20
2023-01-13T09:19:23.062Z,23.10
2023-01-13T09:21:49.549Z,21.48
2023-01-13T09:24:16.374Z,24.30
2023-01-13T09:26:43.059Z,26.00
2023-01-13T09:29:09.586Z,21.08
2023-01-13T09:31:36.154Z,21.70
2023-01-13T09:34:22.088Z,23.38
2023-01-13T09:36:48.846Z,24.02
2023-01-13T09:39:15.433Z,23.95
2023-01-13T09:42:03.760Z,21.38
2023-01-13T09:44:43.178Z,22.30
2023-01-13T09:47:18.663Z,21.27
2023-01-13T09:49:45.541Z,29.80
2023-01-13T09:52:26.702Z,24.80
2023-01-13T09:55:00.898Z,23.63
2023-01-13T09:57:28.640Z,26.47
2023-01-13T09:59:55.172Z,24.60
2023-01-13T10:03:01.772Z,23.45
2023-01-13T10:06:00.486Z,24.77
2023-01-13T10:08:30.685Z,25.20
2023-01-13T10:10:59.618Z,23.17
2023-01-13T10:13:28.795Z,26.00
2023-01-13T10:16:10.414Z,24.52
2023-01-13T10:19:00.760Z,27.48
2023-01-13T10:21:33.113Z,24.50
2023-01-13T10:24:04.417Z,25.63
2023-01-13T10:26:42.911Z,27.50
2023-01-13T10:29:25.280Z,26.75
2023-01-13T10:31:58.121Z,25.17
2023-01-13T10:34:25.853Z,26.67
2023-01-13T10:37:07.981Z,26.43
2023-01-13T10:40:00.914Z,25.88
2023-01-13T10:42:27.555Z,30.10
2023-01-13T10:44:56.140Z,26.90
2023-01-13T10:47:24.706Z,26.42
2023-01-13T10:50:13.030Z,26.10
2023-01-13T10:52:43.451Z,28.80
2023-01-13T10:55:33.432Z,29.88
2023-01-13T10:58:20.180Z,28.20
2023-01-13T11:00:46.982Z,27.77
2023-01-13T11:03:19.306Z,30.03
2023-01-13T11:05:55.877Z,29.85
2023-01-13T11:08:28.433Z,29.35
2023-01-13T11:10:59.882Z,26.00
2023-01-13T11:13:34.168Z,31.45
2023-01-13T11:16:05.327Z,29.37
2023-01-13T11:18:37.966Z,30.00
2023-01-13T11:21:15.180Z,30.02
2023-01-13T11:23:46.404Z,30.05
2023-01-13T11:26:18.498Z,29.05
2023-01-13T11:28:56.106Z,31.30
2023-01-13T11:31:26.570Z,29.90
2023-01-13T11:34:10.212Z,29.58
2023-01-13T11:36:40.722Z,32.97
2023-01-13T11:39:27.012Z,28.45
2023-01-13T11:42:21.172Z,31.70
2023-01-13T11:44:59.123Z,31.58
2023-01-13T11:47:26.573Z,28.13
2023-01-13T11:49:53.066Z,33.85
2023-01-13T11:52:24.485Z,34.58
2023-01-13T11:55:00.069Z,30.47
2023-01-13T11:57:52.509Z,29.58
2023-01-13T12:00:54.520Z,36.38
2023-01-13T12:03:32.181Z,35.60
2023-01-13T12:06:22.168Z,32.30
2023-01-13T12:09:01.453Z,38.90
2023-01-13T12:11:33.447Z,37.28
2023-01-13T12:14:38.393Z,33.10
2023-01-13T12:17:14.127Z,31.83
2023-01-13T12:19:44.274Z,33.25
2023-01-13T12:22:17.767Z,40.37
2023-01-13T12:24:47.472Z,37.47
2023-01-13T12:27:40.536Z,36.85
2023-01-13T12:30:37.226Z,40.10
2023-01-13T12:33:18.661Z,37.20
2023-01-13T12:35:55.551Z,39.93
2023-01-13T12:38:37.815Z,32.92
2023-01-13T12:41:32.177Z,38.28
2023-01-13T12:44:17.424Z,35.72
2023-01-13T12:46:56.239Z,37.70
2023-01-13T12:49:24.037Z,40.17
2023-01-13T12:51:56.535Z,36.78
2023-01-13T12:54:41.106Z,39.08
2023-01-13T12:57:27.934Z,41.88
2023-01-13T13:00:15.458Z,40.20
2023-01-13T13:02:44.447Z,39.10
2023-01-13T13:05:14.079Z,45.58
2023-01-13T13:07:46.500Z,41.25
2023-01-13T13:10:31.048Z,41.28
2023-01-13T13:13:20.103Z,36.38
2023-01-13T13:15:48.179Z,40.07
2023-01-13T13:18:17.368Z,44.15
2023-01-13T13:21:04.254Z,39.75
2023-01-13T13:23:37.102Z,42.53
2023-01-13T13:26:31.753Z,36.55
2023-01-13T13:29:30.951Z,41.57
2023-01-13T13:32:03.531Z,41.78
2023-01-13T13:34:38.966Z,42.58
2023-01-13T13:37:32.815Z,43.88
2023-01-13T13:40:24.061Z,41.00
2023-01-13T13:43:15.332Z,38.30
2023-01-13T13:46:10.421Z,39.60
2023-01-13T13:48:37.333Z,41.47
2023-01-13T13:51:23.384Z,38.67
2023-01-13T13:53:49.888Z,36.55
2023-01-13T13:56:20.238Z,42.50
2023-01-13T13:58:47.677Z,40.35
2023-01-13T14:01:36.900Z,41.25
2023-01-13T14:04:11.687Z,36.95
2023-01-13T14:06:38.197Z,34.65
2023-01-13T14:09:12.401Z,36.80
2023-01-13T14:11:41.172Z,37.22
2023-01-13T14:14:13.644Z,37.42
2023-01-13T14:16:41.083Z,36.55
2023-01-13T14:19:25.374Z,36.88
2023-01-13T14:21:52.005Z,38.83
2023-01-13T14:24:21.026Z,38.45
2023-01-13T14:26:51.888Z,36.67
2023-01-13T14:29:21.940Z,40.22
2023-01-13T14:31:50.159Z,40.95
2023-01-13T14:34:31.468Z,37.53
2023-01-13T14:36:59.938Z,38.70
2023-01-13T14:39:35.084Z,38.17
2023-01-13T14:42:01.661Z,32.47
2023-01-13T14:44:33.400Z,40.95
2023-01-13T14:47:27.408Z,34.00
2023-01-13T14:50:06.855Z,34.50
2023-01-13T14:52:37.275Z,33.25
2023-01-13T14:55:10.174Z,39.47
2023-01-13T14:57:39.605Z,32.03
2023-01-13T15:00:15.192Z,35.93
2023-01-13T15:02:57.226Z,34.53
2023-01-13T15:05:32.983Z,38.17
2023-01-13T15:08:05.320Z,30.58
2023-01-13T15:10:38.144Z,33.88
2023-01-13T15:13:06.636Z,30.10
2023-01-13T15:15:35.800Z,33.47
2023-01-13T15:18:09.544Z,33.50
2023-01-13T15:20:35.994Z,29.73
2023-01-13T15:23:02.533Z,31.50
2023-01-13T15:25:33.444Z,36.13
2023-01-13T15:28:00.144Z,33.80
2023-01-13T15:30:27.575Z,36.28
2023-01-13T15:32:55.408Z,35.90
2023-01-13T15:35:23.705Z,36.65
2023-01-13T15:37:50.612Z,35.97
2023-01-13T15:40:30.654Z,37.53
2023-01-13T15:43:16.185Z,39.95
2023-01-13T15:46:01.217Z,39.55
2023-01-13T15:48:29.524Z,36.83
2023-01-13T15:50:56.082Z,39.77
2023-01-13T15:53:22.693Z,40.92
2023-01-13T15:55:54.139Z,36.13
2023-01-13T15:58:23.279Z,45.25
2023-01-13T16:00:49.998Z,35.90
2023-01-13T16:03:17.272Z,39.83
2023-01-13T16:05:44.588Z,34.08
2023-01-13T16:08:17.808Z,40.75
2023-01-13T16:10:45.247Z,35.67
2023-01-13T16:13:12.617Z,40.80
2023-01-13T16:15:47.463Z,42.80
2023-01-13T16:18:24.258Z,40.72
2023-01-13T16:20:55.268Z,38.85
2023-01-13T16:23:22.882Z,37.30
2023-01-13T16:25:50.333Z,41.92
2023-01-13T16:28:22.130Z,37.33
2023-01-13T16:30:48.636Z,41.00
2023-01-13T16:33:15.335Z,39.20
2023-01-13T16:35:44.712Z,44.25
2023-01-13T16:38:28.504Z,41.78
2023-01-13T16:40:56.937Z,39.90
2023-01-13T16:43:23.439Z,39.97
2023-01-13T16:45:50.027Z,38.55
2023-01-13T16:48:20.272Z,41.22
2023-01-13T16:50:46.963Z,35.42
2023-01-13T16:53:13.496Z,37.73
2023-01-13T16:55:41.412Z,42.88
2023-01-13T16:58:17.345Z,38.90
2023-01-13T17:00:46.845Z,38.15
2023-01-13T17:03:14.624Z,39.80
2023-01-13T17:05:43.035Z,41.23
2023-01-13T17:08:18.065Z,38.58
2023-01-13T17:10:47.937Z,40.63
2023-01-13T17:13:16.784Z,41.70
2023-01-13T17:15:44.712Z,40.00
2023-01-13T17:18:13.305Z,37.87
2023-01-13T17:20:40.014Z,38.30
2023-01-13T17:23:06.545Z,43.20
2023-01-13T17:25:33.068Z,41.78
2023-01-13T17:27:59.618Z,29.52
2023-01-13T17:30:26.168Z,35.77
2023-01-13T17:32:52.781Z,35.08
2023-01-13T17:35:24.762Z,36.17
2023-01-13T17:37:52.941Z,38.78
2023-01-13T17:40:19.826Z,35.15
2023-01-13T17:42:46.357Z,32.33
2023-01-13T17:45:12.930Z,32.03
2023-01-13T17:47:39.440Z,39.15
2023-01-13T17:50:06.350Z,36.75
2023-01-13T17:52:33.851Z,34.47
2023-01-13T17:55:03.381Z,27.77
2023-01-13T17:57:29.930Z,33.35
2023-01-13T17:59:58.252Z,37.70
2023-01-13T18:02:24.973Z,33.95
2023-01-13T18:04:51.646Z,36.10
2023-01-13T18:07:18.171Z,32.07
2023-01-13T18:09:44.739Z,31.27
2023-01-13T18:12:11.584Z,32.80
2023-01-13T18:14:38.120Z,29.85
2023-01-13T18:17:04.733Z,36.80
2023-01-13T18:19:50.141Z,31.83
2023-01-13T18:22:35.017Z,34.92
2023-01-13T18:25:21.903Z,31.80
2023-01-13T18:27:49.608Z,33.22
2023-01-13T18:30:16.433Z,35.90
2023-01-13T18:32:43.033Z,37.20
2023-01-13T18:35:11.156Z,31.15
2023-01-13T18:37:40.346Z,37.13
2023-01-13T18:40:10.419Z,32.08
2023-01-13T18:42:54.847Z,33.97
2023-01-13T18:45:27.478Z,35.67
2023-01-13T18:47:55.723Z,34.50
2023-01-13T18:50:23.122Z,37.95
2023-01-13T18:52:52.810Z,35.75
2023-01-13T18:55:19.889Z,31.00
2023-01-13T18:57:46.942Z,33.77
2023-01-13T19:00:16.797Z,32.78
2023-01-13T19:02:44.233Z,36.95
2023-01-13T19:05:10.805Z,41.08
2023-01-13T19:07:37.324Z,37.88
2023-01-13T19:10:05.524Z,35.87
2023-01-13T19:12:33.653Z,35.60
2023-01-13T19:15:01.319Z,32.50
2023-01-13T19:17:31.743Z,31.02
2023-01-13T19:19:59.038Z,37.88
2023-01-13T19:22:30.932Z,34.73
2023-01-13T19:24:58.209Z,37.25
2023-01-13T19:27:25.348Z,35.55
2023-01-13T19:29:53.705Z,35.17
2023-01-13T19:32:21.791Z,34.05
2023-01-13T19:34:50.865Z,35.30
2023-01-13T19:37:17.990Z,34.33
2023-01-13T19:39:45.055Z,37.75
2023-01-13T19:42:30.625Z,35.35
2023-01-13T19:45:15.545Z,33.50
2023-01-13T19:47:43.920Z,35.03
2023-01-13T19:50:10.892Z,34.97
2023-01-13T19:52:37.500Z,35.17
2023-01-13T19:55:04.238Z,38.10
2023-01-13T19:57:30.802Z,37.45
2023-01-13T19:59:57.433Z,36.63
2023-01-13T20:02:31.583Z,31.17
2023-01-13T20:05:00.035Z,37.63
2023-01-13T20:07:28.517Z,35.83
2023-01-13T20:09:57.662Z,37.00
2023-01-13T20:12:25.301Z,38.67
2023-01-13T20:14:51.961Z,35.33
2023-01-13T20:17:20.103Z,37.60
2023-01-13T20:19:46.874Z,38.58
2023-01-13T20:22:13.682Z,39.60
2023-01-13T20:24:40.179Z,43.97
2023-01-13T20:27:06.743Z,42.25
2023-01-13T20:29:34.045Z,37.58
2023-01-13T20:32:01.609Z,40.17
2023-01-13T20:34:28.348Z,40.65
2023-01-13T20:36:54.930Z,38.03
2023-01-13T20:39:25.742Z,39.22
2023-01-13T20:42:11.483Z,38.80
2023-01-13T20:44:38.043Z,42.10
2023-01-13T20:47:04.891Z,39.95
2023-01-13T20:49:31.629Z,41.03
2023-01-13T20:51:58.696Z,44.58
2023-01-13T20:54:25.795Z,46.17
2023-01-13T20:56:52.296Z,45.03
